sensor_id;sensor_type;location;lat;lon;timestamp;P1;durP1;ratioP1;P2;durP2;ratioP2
7336;SDS011;54510;42.016;23.098;2023-02-28T00:01:20;8.65;;;3.90;;
7336;SDS011;54510;42.016;23.098;2023-02-28T00:03:46;4.90;;;3.10;;
7336;SDS011;54510;42.016;23.098;2023-02-28T00:06:11;7.43;;;3.22;;
7336;SDS011;54510;42.016;23.098;2023-02-28T00:08:37;7.05;;;3.25;;
7336;SDS011;54510;42.016;23.098;2023-02-28T00:11:04;7.57;;;3.38;;
7336;SDS011;54510;42.016;23.098;2023-02-28T00:13:33;6.13;;;3.00;;
7336;SDS011;54510;42.016;23.098;2023-02-28T00:16:00;8.98;;;3.97;;
7336;SDS011;54510;42.016;23.098;2023-02-28T00:18:30;6.70;;;3.00;;
7336;SDS011;54510;42.016;23.098;2023-02-28T00:20:56;4.82;;;2.92;;
7336;SDS011;54510;42.016;23.098;2023-02-28T00:23:22;5.70;;;3.35;;
7336;SDS011;54510;42.016;23.098;2023-02-28T00:25:48;6.82;;;2.90;;
7336;SDS011;54510;42.016;23.098;2023-02-28T00:28:14;6.05;;;3.15;;
7336;SDS011;54510;42.016;23.098;2023-02-28T00:30:39;4.68;;;3.25;;
7336;SDS011;54510;42.016;23.098;2023-02-28T00:33:05;6.03;;;3.40;;
7336;SDS011;54510;42.016;23.098;2023-02-28T00:35:30;9.98;;;3.97;;
7336;SDS011;54510;42.016;23.098;2023-02-28T00:37:55;5.38;;;3.58;;
7336;SDS011;54510;42.016;23.098;2023-02-28T00:40:21;10.88;;;3.38;;
7336;SDS011;54510;42.016;23.098;2023-02-28T00:42:46;7.30;;;2.95;;
7336;SDS011;54510;42.016;23.098;2023-02-28T00:45:12;9.68;;;3.45;;
7336;SDS011;54510;42.016;23.098;2023-02-28T00:47:37;5.60;;;3.08;;
7336;SDS011;54510;42.016;23.098;2023-02-28T00:50:03;7.97;;;3.17;;
7336;SDS011;54510;42.016;23.098;2023-02-28T00:52:29;8.57;;;3.60;;
7336;SDS011;54510;42.016;23.098;2023-02-28T00:54:55;9.75;;;3.40;;
7336;SDS011;54510;42.016;23.098;2023-02-28T00:57:20;6.65;;;3.22;;
7336;SDS011;54510;42.016;23.098;2023-02-28T00:59:46;5.93;;;3.42;;
7336;SDS011;54510;42.016;23.098;2023-02-28T01:02:11;9.82;;;3.83;;
7336;SDS011;54510;42.016;23.098;2023-02-28T01:04:37;6.10;;;3.22;;
7336;SDS011;54510;42.016;23.098;2023-02-28T01:07:02;6.10;;;3.33;;
7336;SDS011;54510;42.016;23.098;2023-02-28T01:09:28;7.78;;;3.60;;
7336;SDS011;54510;42.016;23.098;2023-02-28T01:11:54;8.98;;;4.00;;
7336;SDS011;54510;42.016;23.098;2023-02-28T01:14:19;5.97;;;3.60;;
7336;SDS011;54510;42.016;23.098;2023-02-28T01:16:44;5.63;;;3.35;;
7336;SDS011;54510;42.016;23.098;2023-02-28T01:19:10;5.70;;;2.75;;
7336;SDS011;54510;42.016;23.098;2023-02-28T01:21:36;6.80;;;2.42;;
7336;SDS011;54510;42.016;23.098;2023-02-28T01:24:02;6.75;;;2.65;;
7336;SDS011;54510;42.016;23.098;2023-02-28T01:26:28;4.85;;;2.78;;
7336;SDS011;54510;42.016;23.098;2023-02-28T01:28:54;7.25;;;3.15;;
7336;SDS011;54510;42.016;23.098;2023-02-28T01:31:20;6.35;;;3.40;;
7336;SDS011;54510;42.016;23.098;2023-02-28T01:33:47;8.70;;;3.30;;
7336;SDS011;54510;42.016;23.098;2023-02-28T01:36:17;8.50;;;3.40;;
7336;SDS011;54510;42.016;23.098;2023-02-28T01:38:45;6.25;;;2.88;;
7336;SDS011;54510;42.016;23.098;2023-02-28T01:41:30;7.38;;;3.38;;
7336;SDS011;54510;42.016;23.098;2023-02-28T01:44:04;8.55;;;3.70;;
7336;SDS011;54510;42.016;23.098;2023-02-28T01:46:32;6.72;;;3.88;;
7336;SDS011;54510;42.016;23.098;2023-02-28T01:51:38;6.85;;;3.42;;
7336;SDS011;54510;42.016;23.098;2023-02-28T01:54:11;11.38;;;3.15;;
7336;SDS011;54510;42.016;23.098;2023-02-28T01:56:46;5.85;;;3.38;;
7336;SDS011;54510;42.016;23.098;2023-02-28T01:59:18;5.85;;;3.08;;
7336;SDS011;54510;42.016;23.098;2023-02-28T02:01:49;5.78;;;3.55;;
7336;SDS011;54510;42.016;23.098;2023-02-28T02:04:15;10.60;;;4.20;;
7336;SDS011;54510;42.016;23.098;2023-02-28T02:06:42;6.95;;;3.72;;
7336;SDS011;54510;42.016;23.098;2023-02-28T02:09:09;6.55;;;2.85;;
7336;SDS011;54510;42.016;23.098;2023-02-28T02:11:35;5.13;;;2.58;;
7336;SDS011;54510;42.016;23.098;2023-02-28T02:14:14;10.80;;;2.97;;
7336;SDS011;54510;42.016;23.098;2023-02-28T02:17:10;6.88;;;2.70;;
7336;SDS011;54510;42.016;23.098;2023-02-28T02:25:45;10.27;;;2.97;;
7336;SDS011;54510;42.016;23.098;2023-02-28T02:31:13;9.75;;;3.20;;
7336;SDS011;54510;42.016;23.098;2023-02-28T02:36:58;7.85;;;2.47;;
7336;SDS011;54510;42.016;23.098;2023-02-28T02:39:52;5.95;;;3.00;;
7336;SDS011;54510;42.016;23.098;2023-02-28T02:42:27;5.07;;;2.53;;
7336;SDS011;54510;42.016;23.098;2023-02-28T02:45:01;4.20;;;2.65;;
7336;SDS011;54510;42.016;23.098;2023-02-28T02:47:31;4.55;;;2.22;;
7336;SDS011;54510;42.016;23.098;2023-02-28T02:49:59;6.55;;;2.63;;
7336;SDS011;54510;42.016;23.098;2023-02-28T02:52:32;5.53;;;2.60;;
7336;SDS011;54510;42.016;23.098;2023-02-28T02:55:03;4.22;;;2.00;;
7336;SDS011;54510;42.016;23.098;2023-02-28T02:57:32;8.20;;;2.63;;
7336;SDS011;54510;42.016;23.098;2023-02-28T03:00:02;5.28;;;2.10;;
7336;SDS011;54510;42.016;23.098;2023-02-28T03:02:33;4.28;;;2.72;;
7336;SDS011;54510;42.016;23.098;2023-02-28T03:05:02;5.90;;;2.08;;
7336;SDS011;54510;42.016;23.098;2023-02-28T03:07:38;3.95;;;2.20;;
7336;SDS011;54510;42.016;23.098;2023-02-28T03:10:25;7.72;;;2.10;;
7336;SDS011;54510;42.016;23.098;2023-02-28T03:13:00;4.15;;;2.33;;
7336;SDS011;54510;42.016;23.098;2023-02-28T03:15:32;5.32;;;2.35;;
7336;SDS011;54510;42.016;23.098;2023-02-28T03:18:14;9.45;;;2.90;;
7336;SDS011;54510;42.016;23.098;2023-02-28T03:23:38;6.75;;;3.03;;
7336;SDS011;54510;42.016;23.098;2023-02-28T03:26:16;7.97;;;3.22;;
7336;SDS011;54510;42.016;23.098;2023-02-28T03:31:19;6.70;;;2.20;;
7336;SDS011;54510;42.016;23.098;2023-02-28T03:33:51;7.40;;;2.55;;
7336;SDS011;54510;42.016;23.098;2023-02-28T03:36:25;8.48;;;2.90;;
7336;SDS011;54510;42.016;23.098;2023-02-28T03:41:31;6.28;;;2.45;;
7336;SDS011;54510;42.016;23.098;2023-02-28T03:44:05;11.75;;;3.47;;
7336;SDS011;54510;42.016;23.098;2023-02-28T03:46:41;9.20;;;2.80;;
7336;SDS011;54510;42.016;23.098;2023-02-28T03:51:39;7.90;;;2.88;;
7336;SDS011;54510;42.016;23.098;2023-02-28T03:54:11;5.25;;;2.50;;
7336;SDS011;54510;42.016;23.098;2023-02-28T03:56:43;3.70;;;1.73;;
7336;SDS011;54510;42.016;23.098;2023-02-28T03:59:15;4.45;;;1.75;;
7336;SDS011;54510;42.016;23.098;2023-02-28T04:01:47;7.50;;;2.38;;
7336;SDS011;54510;42.016;23.098;2023-02-28T04:04:14;10.15;;;2.40;;
7336;SDS011;54510;42.016;23.098;2023-02-28T04:06:41;6.45;;;1.85;;
7336;SDS011;54510;42.016;23.098;2023-02-28T04:09:08;6.13;;;1.83;;
7336;SDS011;54510;42.016;23.098;2023-02-28T04:11:37;6.82;;;2.70;;
7336;SDS011;54510;42.016;23.098;2023-02-28T04:14:07;9.27;;;3.10;;
7336;SDS011;54510;42.016;23.098;2023-02-28T04:16:34;6.68;;;2.92;;
7336;SDS011;54510;42.016;23.098;2023-02-28T04:19:02;8.93;;;2.42;;
7336;SDS011;54510;42.016;23.098;2023-02-28T04:21:30;4.25;;;1.48;;
7336;SDS011;54510;42.016;23.098;2023-02-28T04:24:00;8.90;;;2.67;;
7336;SDS011;54510;42.016;23.098;2023-02-28T04:26:30;10.43;;;3.17;;
7336;SDS011;54510;42.016;23.098;2023-02-28T04:28:56;8.05;;;2.45;;
7336;SDS011;54510;42.016;23.098;2023-02-28T04:31:22;8.43;;;3.05;;
7336;SDS011;54510;42.016;23.098;2023-02-28T04:33:48;6.15;;;3.08;;
7336;SDS011;54510;42.016;23.098;2023-02-28T04:36:13;7.50;;;2.80;;
7336;SDS011;54510;42.016;23.098;2023-02-28T04:38:39;6.55;;;3.28;;
7336;SDS011;54510;42.016;23.098;2023-02-28T04:41:05;12.63;;;3.25;;
7336;SDS011;54510;42.016;23.098;2023-02-28T04:43:31;8.30;;;2.90;;
7336;SDS011;54510;42.016;23.098;2023-02-28T04:45:58;10.10;;;3.28;;
7336;SDS011;54510;42.016;23.098;2023-02-28T04:48:29;9.73;;;2.95;;
7336;SDS011;54510;42.016;23.098;2023-02-28T04:51:00;14.40;;;3.10;;
7336;SDS011;54510;42.016;23.098;2023-02-28T04:53:27;8.43;;;3.25;;
7336;SDS011;54510;42.016;23.098;2023-02-28T04:55:54;11.68;;;3.78;;
7336;SDS011;54510;42.016;23.098;2023-02-28T04:58:19;7.80;;;3.33;;
7336;SDS011;54510;42.016;23.098;2023-02-28T05:00:48;12.82;;;4.15;;
7336;SDS011;54510;42.016;23.098;2023-02-28T05:03:13;12.48;;;3.40;;
7336;SDS011;54510;42.016;23.098;2023-02-28T05:05:39;8.73;;;4.05;;
7336;SDS011;54510;42.016;23.098;2023-02-28T05:08:04;8.95;;;3.65;;
7336;SDS011;54510;42.016;23.098;2023-02-28T05:10:30;9.85;;;4.18;;
7336;SDS011;54510;42.016;23.098;2023-02-28T05:12:56;10.95;;;3.30;;
7336;SDS011;54510;42.016;23.098;2023-02-28T05:15:21;16.25;;;2.70;;
7336;SDS011;54510;42.016;23.098;2023-02-28T05:17:47;8.32;;;3.58;;
7336;SDS011;54510;42.016;23.098;2023-02-28T05:20:12;7.22;;;3.35;;
7336;SDS011;54510;42.016;23.098;2023-02-28T05:22:39;10.32;;;4.43;;
7336;SDS011;54510;42.016;23.098;2023-02-28T05:25:05;10.27;;;4.03;;
7336;SDS011;54510;42.016;23.098;2023-02-28T05:27:31;10.18;;;5.07;;
7336;SDS011;54510;42.016;23.098;2023-02-28T05:29:57;9.50;;;4.28;;
7336;SDS011;54510;42.016;23.098;2023-02-28T05:32:23;17.25;;;5.25;;
7336;SDS011;54510;42.016;23.098;2023-02-28T05:34:49;19.42;;;5.15;;
7336;SDS011;54510;42.016;23.098;2023-02-28T05:37:15;104.35;;;58.22;;
7336;SDS011;54510;42.016;23.098;2023-02-28T05:39:41;58.75;;;32.63;;
7336;SDS011;54510;42.016;23.098;2023-02-28T05:42:07;39.13;;;22.33;;
7336;SDS011;54510;42.016;23.098;2023-02-28T05:44:33;40.28;;;19.52;;
7336;SDS011;54510;42.016;23.098;2023-02-28T05:46:58;32.65;;;19.90;;
7336;SDS011;54510;42.016;23.098;2023-02-28T05:49:24;15.95;;;9.55;;
7336;SDS011;54510;42.016;23.098;2023-02-28T05:51:49;17.83;;;7.60;;
7336;SDS011;54510;42.016;23.098;2023-02-28T05:54:15;18.75;;;5.97;;
7336;SDS011;54510;42.016;23.098;2023-02-28T05:56:41;14.27;;;5.90;;
7336;SDS011;54510;42.016;23.098;2023-02-28T05:59:09;13.13;;;5.55;;
7336;SDS011;54510;42.016;23.098;2023-02-28T06:01:39;17.20;;;7.63;;
7336;SDS011;54510;42.016;23.098;2023-02-28T06:04:07;13.70;;;6.45;;
7336;SDS011;54510;42.016;23.098;2023-02-28T06:06:34;12.43;;;5.65;;
7336;SDS011;54510;42.016;23.098;2023-02-28T06:09:01;18.15;;;6.95;;
7336;SDS011;54510;42.016;23.098;2023-02-28T06:11:27;16.85;;;5.35;;
7336;SDS011;54510;42.016;23.098;2023-02-28T06:13:59;19.15;;;5.80;;
7336;SDS011;54510;42.016;23.098;2023-02-28T06:16:45;13.57;;;6.70;;
7336;SDS011;54510;42.016;23.098;2023-02-28T06:19:11;18.55;;;6.47;;
7336;SDS011;54510;42.016;23.098;2023-02-28T06:21:37;18.90;;;6.70;;
7336;SDS011;54510;42.016;23.098;2023-02-28T06:24:03;19.73;;;7.68;;
7336;SDS011;54510;42.016;23.098;2023-02-28T06:26:29;16.05;;;5.72;;
7336;SDS011;54510;42.016;23.098;2023-02-28T06:28:55;18.88;;;7.75;;
7336;SDS011;54510;42.016;23.098;2023-02-28T06:31:21;22.88;;;8.35;;
7336;SDS011;54510;42.016;23.098;2023-02-28T06:33:48;23.30;;;8.77;;
7336;SDS011;54510;42.016;23.098;2023-02-28T06:36:14;24.10;;;8.02;;
7336;SDS011;54510;42.016;23.098;2023-02-28T06:38:40;15.38;;;7.35;;
7336;SDS011;54510;42.016;23.098;2023-02-28T06:41:07;18.40;;;6.93;;
7336;SDS011;54510;42.016;23.098;2023-02-28T06:43:34;20.30;;;7.40;;
7336;SDS011;54510;42.016;23.098;2023-02-28T06:46:03;18.25;;;6.50;;
7336;SDS011;54510;42.016;23.098;2023-02-28T06:48:30;13.95;;;7.25;;
7336;SDS011;54510;42.016;23.098;2023-02-28T06:51:28;15.45;;;6.32;;
7336;SDS011;54510;42.016;23.098;2023-02-28T06:53:49;17.25;;;5.57;;
7336;SDS011;54510;42.016;23.098;2023-02-28T06:56:15;9.75;;;4.78;;
7336;SDS011;54510;42.016;23.098;2023-02-28T06:58:45;16.85;;;8.15;;
7336;SDS011;54510;42.016;23.098;2023-02-28T07:01:15;20.63;;;5.20;;
7336;SDS011;54510;42.016;23.098;2023-02-28T07:03:41;9.52;;;4.82;;
7336;SDS011;54510;42.016;23.098;2023-02-28T07:06:07;18.95;;;8.60;;
7336;SDS011;54510;42.016;23.098;2023-02-28T07:08:33;14.07;;;8.10;;
7336;SDS011;54510;42.016;23.098;2023-02-28T07:11:00;13.00;;;6.70;;
7336;SDS011;54510;42.016;23.098;2023-02-28T07:13:26;11.30;;;5.20;;
7336;SDS011;54510;42.016;23.098;2023-02-28T07:18:22;9.68;;;6.15;;
7336;SDS011;54510;42.016;23.098;2023-02-28T07:20:48;24.45;;;11.55;;
7336;SDS011;54510;42.016;23.098;2023-02-28T07:23:14;11.60;;;5.85;;
7336;SDS011;54510;42.016;23.098;2023-02-28T07:25:39;11.05;;;5.63;;
7336;SDS011;54510;42.016;23.098;2023-02-28T07:28:04;11.82;;;6.15;;
7336;SDS011;54510;42.016;23.098;2023-02-28T07:30:30;16.48;;;7.15;;
7336;SDS011;54510;42.016;23.098;2023-02-28T07:32:55;23.63;;;7.57;;
7336;SDS011;54510;42.016;23.098;2023-02-28T07:35:21;20.20;;;8.10;;
7336;SDS011;54510;42.016;23.098;2023-02-28T07:37:47;24.67;;;11.68;;
7336;SDS011;54510;42.016;23.098;2023-02-28T07:40:13;21.65;;;9.98;;
7336;SDS011;54510;42.016;23.098;2023-02-28T07:42:39;21.05;;;9.95;;
7336;SDS011;54510;42.016;23.098;2023-02-28T07:45:06;31.13;;;12.13;;
7336;SDS011;54510;42.016;23.098;2023-02-28T07:47:33;26.38;;;13.40;;
7336;SDS011;54510;42.016;23.098;2023-02-28T07:49:59;34.08;;;13.15;;
7336;SDS011;54510;42.016;23.098;2023-02-28T07:52:25;34.55;;;17.63;;
7336;SDS011;54510;42.016;23.098;2023-02-28T07:54:51;30.98;;;15.90;;
7336;SDS011;54510;42.016;23.098;2023-02-28T07:57:17;32.03;;;14.85;;
7336;SDS011;54510;42.016;23.098;2023-02-28T07:59:43;30.63;;;12.77;;
7336;SDS011;54510;42.016;23.098;2023-02-28T08:02:15;23.40;;;10.60;;
7336;SDS011;54510;42.016;23.098;2023-02-28T08:04:42;20.08;;;10.32;;
7336;SDS011;54510;42.016;23.098;2023-02-28T08:07:08;26.08;;;10.98;;
7336;SDS011;54510;42.016;23.098;2023-02-28T08:09:38;20.70;;;10.52;;
7336;SDS011;54510;42.016;23.098;2023-02-28T08:12:04;28.25;;;10.40;;
7336;SDS011;54510;42.016;23.098;2023-02-28T08:14:29;24.98;;;10.48;;
7336;SDS011;54510;42.016;23.098;2023-02-28T08:16:55;20.55;;;10.20;;
7336;SDS011;54510;42.016;23.098;2023-02-28T08:19:21;42.38;;;22.85;;
7336;SDS011;54510;42.016;23.098;2023-02-28T08:21:46;25.10;;;13.18;;
7336;SDS011;54510;42.016;23.098;2023-02-28T08:24:11;36.88;;;13.38;;
7336;SDS011;54510;42.016;23.098;2023-02-28T08:26:37;24.60;;;13.05;;
7336;SDS011;54510;42.016;23.098;2023-02-28T08:29:05;28.55;;;11.98;;
7336;SDS011;54510;42.016;23.098;2023-02-28T08:31:31;24.38;;;12.15;;
7336;SDS011;54510;42.016;23.098;2023-02-28T08:33:56;37.92;;;18.48;;
7336;SDS011;54510;42.016;23.098;2023-02-28T08:36:24;23.48;;;12.30;;
7336;SDS011;54510;42.016;23.098;2023-02-28T08:38:50;22.48;;;13.80;;
7336;SDS011;54510;42.016;23.098;2023-02-28T08:41:16;19.63;;;8.68;;
7336;SDS011;54510;42.016;23.098;2023-02-28T08:43:41;13.48;;;6.57;;
7336;SDS011;54510;42.016;23.098;2023-02-28T08:46:07;16.05;;;9.02;;
7336;SDS011;54510;42.016;23.098;2023-02-28T08:48:37;14.98;;;8.32;;
7336;SDS011;54510;42.016;23.098;2023-02-28T08:51:10;15.10;;;8.35;;
7336;SDS011;54510;42.016;23.098;2023-02-28T08:53:37;23.48;;;9.40;;
7336;SDS011;54510;42.016;23.098;2023-02-28T08:56:08;21.85;;;10.85;;
7336;SDS011;54510;42.016;23.098;2023-02-28T08:58:36;23.15;;;11.38;;
7336;SDS011;54510;42.016;23.098;2023-02-28T09:01:07;27.27;;;13.63;;
7336;SDS011;54510;42.016;23.098;2023-02-28T09:03:34;23.87;;;13.07;;
7336;SDS011;54510;42.016;23.098;2023-02-28T09:06:00;25.85;;;11.95;;
7336;SDS011;54510;42.016;23.098;2023-02-28T09:08:27;21.08;;;11.60;;
7336;SDS011;54510;42.016;23.098;2023-02-28T09:10:54;21.40;;;11.25;;
7336;SDS011;54510;42.016;23.098;2023-02-28T09:13:22;19.35;;;10.07;;
7336;SDS011;54510;42.016;23.098;2023-02-28T09:15:47;23.20;;;11.80;;
7336;SDS011;54510;42.016;23.098;2023-02-28T09:18:13;25.08;;;14.38;;
7336;SDS011;54510;42.016;23.098;2023-02-28T09:20:39;22.23;;;11.70;;
7336;SDS011;54510;42.016;23.098;2023-02-28T09:23:06;24.65;;;12.13;;
7336;SDS011;54510;42.016;23.098;2023-02-28T09:25:33;22.23;;;9.68;;
7336;SDS011;54510;42.016;23.098;2023-02-28T09:28:00;18.38;;;9.57;;
7336;SDS011;54510;42.016;23.098;2023-02-28T09:30:25;20.20;;;11.48;;
7336;SDS011;54510;42.016;23.098;2023-02-28T09:32:51;21.52;;;12.05;;
7336;SDS011;54510;42.016;23.098;2023-02-28T09:35:20;22.00;;;12.70;;
7336;SDS011;54510;42.016;23.098;2023-02-28T09:37:47;21.92;;;11.60;;
7336;SDS011;54510;42.016;23.098;2023-02-28T09:40:14;23.88;;;11.80;;
7336;SDS011;54510;42.016;23.098;2023-02-28T09:42:44;19.40;;;9.02;;
7336;SDS011;54510;42.016;23.098;2023-02-28T09:45:46;28.85;;;11.32;;
7336;SDS011;54510;42.016;23.098;2023-02-28T09:48:16;20.13;;;8.85;;
7336;SDS011;54510;42.016;23.098;2023-02-28T09:50:46;21.75;;;9.48;;
7336;SDS011;54510;42.016;23.098;2023-02-28T09:53:28;22.02;;;10.50;;
7336;SDS011;54510;42.016;23.098;2023-02-28T09:56:13;16.20;;;10.98;;
7336;SDS011;54510;42.016;23.098;2023-02-28T09:58:53;19.30;;;9.27;;
7336;SDS011;54510;42.016;23.098;2023-02-28T10:04:00;14.55;;;7.30;;
7336;SDS011;54510;42.016;23.098;2023-02-28T10:06:28;24.80;;;11.80;;
7336;SDS011;54510;42.016;23.098;2023-02-28T10:11:29;13.73;;;7.95;;
7336;SDS011;54510;42.016;23.098;2023-02-28T10:14:06;21.60;;;9.57;;
7336;SDS011;54510;42.016;23.098;2023-02-28T10:16:44;27.33;;;11.43;;
7336;SDS011;54510;42.016;23.098;2023-02-28T10:19:24;60.17;;;38.90;;
7336;SDS011;54510;42.016;23.098;2023-02-28T10:22:01;19.77;;;10.95;;
7336;SDS011;54510;42.016;23.098;2023-02-28T10:24:32;27.30;;;13.27;;
7336;SDS011;54510;42.016;23.098;2023-02-28T10:27:09;21.05;;;9.98;;
7336;SDS011;54510;42.016;23.098;2023-02-28T10:29:40;25.77;;;11.57;;
7336;SDS011;54510;42.016;23.098;2023-02-28T10:32:09;29.80;;;12.63;;
7336;SDS011;54510;42.016;23.098;2023-02-28T10:34:39;25.95;;;10.50;;
7336;SDS011;54510;42.016;23.098;2023-02-28T10:37:05;19.92;;;10.27;;
7336;SDS011;54510;42.016;23.098;2023-02-28T10:39:36;21.33;;;8.55;;
7336;SDS011;54510;42.016;23.098;2023-02-28T10:42:04;19.58;;;9.43;;
7336;SDS011;54510;42.016;23.098;2023-02-28T10:44:30;19.33;;;9.60;;
7336;SDS011;54510;42.016;23.098;2023-02-28T10:46:55;16.70;;;9.35;;
7336;SDS011;54510;42.016;23.098;2023-02-28T10:49:22;29.48;;;13.80;;
7336;SDS011;54510;42.016;23.098;2023-02-28T10:51:53;33.67;;;16.80;;
7336;SDS011;54510;42.016;23.098;2023-02-28T10:54:23;18.58;;;9.32;;
7336;SDS011;54510;42.016;23.098;2023-02-28T10:57:13;25.75;;;13.30;;
7336;SDS011;54510;42.016;23.098;2023-02-28T10:59:40;17.80;;;10.73;;
7336;SDS011;54510;42.016;23.098;2023-02-28T11:05:01;27.05;;;10.15;;
7336;SDS011;54510;42.016;23.098;2023-02-28T11:07:27;21.60;;;11.13;;
7336;SDS011;54510;42.016;23.098;2023-02-28T11:09:57;20.50;;;9.05;;
7336;SDS011;54510;42.016;23.098;2023-02-28T11:12:27;34.45;;;17.45;;
7336;SDS011;54510;42.016;23.098;2023-02-28T11:14:58;29.23;;;11.80;;
7336;SDS011;54510;42.016;23.098;2023-02-28T11:17:28;25.15;;;10.80;;
7336;SDS011;54510;42.016;23.098;2023-02-28T11:19:57;23.58;;;10.98;;
7336;SDS011;54510;42.016;23.098;2023-02-28T11:22:29;18.80;;;10.13;;
7336;SDS011;54510;42.016;23.098;2023-02-28T11:24:59;29.08;;;11.13;;
7336;SDS011;54510;42.016;23.098;2023-02-28T11:29:55;21.40;;;9.75;;
7336;SDS011;54510;42.016;23.098;2023-02-28T11:32:22;17.15;;;10.48;;
7336;SDS011;54510;42.016;23.098;2023-02-28T11:35:03;20.13;;;9.77;;
7336;SDS011;54510;42.016;23.098;2023-02-28T11:37:40;21.30;;;8.77;;
7336;SDS011;54510;42.016;23.098;2023-02-28T11:40:16;22.50;;;10.20;;
7336;SDS011;54510;42.016;23.098;2023-02-28T11:42:55;17.33;;;9.60;;
7336;SDS011;54510;42.016;23.098;2023-02-28T11:48:22;25.20;;;10.93;;
7336;SDS011;54510;42.016;23.098;2023-02-28T11:50:55;22.77;;;10.60;;
7336;SDS011;54510;42.016;23.098;2023-02-28T12:01:37;23.77;;;11.68;;
7336;SDS011;54510;42.016;23.098;2023-02-28T12:07:15;24.60;;;11.07;;
7336;SDS011;54510;42.016;23.098;2023-02-28T12:31:52;41.53;;;25.10;;
7336;SDS011;54510;42.016;23.098;2023-02-28T12:34:22;30.48;;;18.00;;
7336;SDS011;54510;42.016;23.098;2023-02-28T12:37:14;66.93;;;35.08;;
7336;SDS011;54510;42.016;23.098;2023-02-28T12:39:45;73.28;;;35.85;;
7336;SDS011;54510;42.016;23.098;2023-02-28T12:42:22;41.70;;;23.13;;
7336;SDS011;54510;42.016;23.098;2023-02-28T12:44:54;26.30;;;12.02;;
7336;SDS011;54510;42.016;23.098;2023-02-28T12:47:32;43.47;;;23.52;;
7336;SDS011;54510;42.016;23.098;2023-02-28T12:49:59;25.60;;;11.23;;
7336;SDS011;54510;42.016;23.098;2023-02-28T12:52:35;28.73;;;14.80;;
7336;SDS011;54510;42.016;23.098;2023-02-28T12:55:14;43.70;;;25.63;;
7336;SDS011;54510;42.016;23.098;2023-02-28T12:57:43;20.95;;;11.38;;
7336;SDS011;54510;42.016;23.098;2023-02-28T13:00:19;25.13;;;12.05;;
7336;SDS011;54510;42.016;23.098;2023-02-28T13:02:53;26.73;;;12.77;;
7336;SDS011;54510;42.016;23.098;2023-02-28T13:10:49;19.45;;;9.32;;
7336;SDS011;54510;42.016;23.098;2023-02-28T13:13:23;23.50;;;9.98;;
7336;SDS011;54510;42.016;23.098;2023-02-28T13:16:02;20.67;;;11.85;;
7336;SDS011;54510;42.016;23.098;2023-02-28T13:18:45;28.08;;;12.25;;
7336;SDS011;54510;42.016;23.098;2023-02-28T13:21:24;30.60;;;13.02;;
7336;SDS011;54510;42.016;23.098;2023-02-28T13:29:00;26.98;;;13.20;;
7336;SDS011;54510;42.016;23.098;2023-02-28T13:31:27;28.23;;;13.52;;
7336;SDS011;54510;42.016;23.098;2023-02-28T13:36:28;35.60;;;16.10;;
7336;SDS011;54510;42.016;23.098;2023-02-28T13:38:58;47.17;;;16.58;;
7336;SDS011;54510;42.016;23.098;2023-02-28T13:46:28;32.83;;;15.25;;
7336;SDS011;54510;42.016;23.098;2023-02-28T13:48:54;33.05;;;16.73;;
7336;SDS011;54510;42.016;23.098;2023-02-28T13:51:37;25.85;;;14.75;;
7336;SDS011;54510;42.016;23.098;2023-02-28T13:54:09;27.52;;;15.93;;
7336;SDS011;54510;42.016;23.098;2023-02-28T13:56:42;28.92;;;16.20;;
7336;SDS011;54510;42.016;23.098;2023-02-28T13:59:19;26.20;;;15.27;;
7336;SDS011;54510;42.016;23.098;2023-02-28T14:07:05;33.55;;;15.63;;
7336;SDS011;54510;42.016;23.098;2023-02-28T14:09:33;25.00;;;13.52;;
7336;SDS011;54510;42.016;23.098;2023-02-28T14:18:17;29.15;;;15.32;;
7336;SDS011;54510;42.016;23.098;2023-02-28T14:20:45;36.33;;;19.08;;
7336;SDS011;54510;42.016;23.098;2023-02-28T14:26:27;27.48;;;16.08;;
7336;SDS011;54510;42.016;23.098;2023-02-28T14:35:09;23.45;;;10.50;;
7336;SDS011;54510;42.016;23.098;2023-02-28T14:37:39;25.38;;;10.57;;
7336;SDS011;54510;42.016;23.098;2023-02-28T14:40:16;30.23;;;12.95;;
7336;SDS011;54510;42.016;23.098;2023-02-28T14:42:55;28.67;;;13.27;;
7336;SDS011;54510;42.016;23.098;2023-02-28T14:45:24;23.73;;;11.77;;
7336;SDS011;54510;42.016;23.098;2023-02-28T14:47:53;23.55;;;12.07;;
7336;SDS011;54510;42.016;23.098;2023-02-28T14:50:20;23.10;;;13.88;;
7336;SDS011;54510;42.016;23.098;2023-02-28T14:52:48;30.48;;;12.98;;
7336;SDS011;54510;42.016;23.098;2023-02-28T14:55:17;27.42;;;15.70;;
7336;SDS011;54510;42.016;23.098;2023-02-28T14:58:04;36.72;;;15.70;;
7336;SDS011;54510;42.016;23.098;2023-02-28T15:00:36;36.55;;;14.50;;
7336;SDS011;54510;42.016;23.098;2023-02-28T15:05:58;26.23;;;14.73;;
7336;SDS011;54510;42.016;23.098;2023-02-28T15:08:25;30.02;;;15.35;;
7336;SDS011;54510;42.016;23.098;2023-02-28T15:13:19;38.25;;;15.10;;
7336;SDS011;54510;42.016;23.098;2023-02-28T15:15:50;41.05;;;21.33;;
7336;SDS011;54510;42.016;23.098;2023-02-28T15:20:46;28.90;;;13.02;;
7336;SDS011;54510;42.016;23.098;2023-02-28T15:23:12;29.13;;;12.60;;
7336;SDS011;54510;42.016;23.098;2023-02-28T15:25:40;22.15;;;9.52;;
7336;SDS011;54510;42.016;23.098;2023-02-28T15:28:09;23.73;;;10.07;;
7336;SDS011;54510;42.016;23.098;2023-02-28T15:30:39;25.65;;;10.10;;
7336;SDS011;54510;42.016;23.098;2023-02-28T15:33:06;27.92;;;10.10;;
7336;SDS011;54510;42.016;23.098;2023-02-28T15:35:41;26.63;;;12.65;;
7336;SDS011;54510;42.016;23.098;2023-02-28T15:43:28;22.08;;;11.38;;
7336;SDS011;54510;42.016;23.098;2023-02-28T15:48:29;34.40;;;11.02;;
7336;SDS011;54510;42.016;23.098;2023-02-28T15:53:37;30.98;;;13.73;;
7336;SDS011;54510;42.016;23.098;2023-02-28T15:56:21;23.83;;;11.05;;
7336;SDS011;54510;42.016;23.098;2023-02-28T15:58:57;24.95;;;10.68;;
7336;SDS011;54510;42.016;23.098;2023-02-28T16:01:27;24.88;;;10.65;;
7336;SDS011;54510;42.016;23.098;2023-02-28T16:03:58;23.67;;;10.63;;
7336;SDS011;54510;42.016;23.098;2023-02-28T16:06:40;21.63;;;10.75;;
7336;SDS011;54510;42.016;23.098;2023-02-28T16:09:16;20.80;;;11.50;;
7336;SDS011;54510;42.016;23.098;2023-02-28T16:11:43;24.10;;;11.32;;
7336;SDS011;54510;42.016;23.098;2023-02-28T16:14:16;26.95;;;14.13;;
7336;SDS011;54510;42.016;23.098;2023-02-28T16:16:45;28.37;;;13.00;;
7336;SDS011;54510;42.016;23.098;2023-02-28T16:19:12;32.55;;;15.60;;
7336;SDS011;54510;42.016;23.098;2023-02-28T16:21:38;34.35;;;19.42;;
7336;SDS011;54510;42.016;23.098;2023-02-28T16:24:04;43.97;;;24.70;;
7336;SDS011;54510;42.016;23.098;2023-02-28T16:26:30;64.22;;;37.90;;
7336;SDS011;54510;42.016;23.098;2023-02-28T16:28:59;50.75;;;28.08;;
7336;SDS011;54510;42.016;23.098;2023-02-28T16:31:26;46.97;;;29.48;;
7336;SDS011;54510;42.016;23.098;2023-02-28T16:33:52;57.72;;;33.75;;
7336;SDS011;54510;42.016;23.098;2023-02-28T16:36:19;60.25;;;35.67;;
7336;SDS011;54510;42.016;23.098;2023-02-28T16:38:46;70.28;;;43.30;;
7336;SDS011;54510;42.016;23.098;2023-02-28T16:41:12;72.20;;;45.92;;
7336;SDS011;54510;42.016;23.098;2023-02-28T16:43:46;76.50;;;42.88;;
7336;SDS011;54510;42.016;23.098;2023-02-28T16:46:13;57.67;;;32.72;;
7336;SDS011;54510;42.016;23.098;2023-02-28T16:48:41;55.47;;;30.40;;
7336;SDS011;54510;42.016;23.098;2023-02-28T16:51:17;58.92;;;32.33;;
7336;SDS011;54510;42.016;23.098;2023-02-28T16:53:43;59.35;;;36.63;;
7336;SDS011;54510;42.016;23.098;2023-02-28T16:56:14;55.47;;;34.20;;
7336;SDS011;54510;42.016;23.098;2023-02-28T16:58:50;46.13;;;28.05;;